Time;durP1;ratioP1;P1;durP2;ratioP2;P2;SDS_P1;SDS_P2;PMS_P1;PMS_P2;Temp;Humidity;BMP_temperature;BMP_pressure;BME280_temperature;BME280_humidity;BME280_pressure;Samples;Min_cycle;Max_cycle;Signal;HPM_P1;HPM_P2
2022/08/15 00:01:12;;;;;;;9.45;8.45;;;;;;;23.68;100.00;100307.25;5034907;28;20025;-79
2022/08/15 00:03:44;;;;;;;8.73;7.70;;;;;;;23.69;100.00;100309.00;5033668;28;20025;-79
2022/08/15 00:06:14;;;;;;;9.77;7.93;;;;;;;23.56;100.00;100306.91;5035001;28;20176;-79
2022/08/15 00:08:47;;;;;;;10.15;8.07;;;;;;;23.53;100.00;100301.66;5036547;28;20096;-79
2022/08/15 00:11:17;;;;;;;8.23;7.40;;;;;;;23.49;100.00;100305.41;5047701;28;20031;-79
2022/08/15 00:13:44;;;;;;;9.85;8.02;;;;;;;23.49;100.00;100305.41;5053015;28;20025;-79
2022/08/15 00:16:11;;;;;;;8.73;7.82;;;;;;;23.45;100.00;100293.06;5042421;28;20028;-79
2022/08/15 00:18:36;;;;;;;11.10;8.93;;;;;;;23.41;100.00;100299.53;5034123;28;20035;-79
2022/08/15 00:21:03;;;;;;;10.70;8.80;;;;;;;23.39;100.00;100298.75;5037261;28;20108;-79
2022/08/15 00:23:29;;;;;;;11.65;8.35;;;;;;;23.34;100.00;100290.88;5040595;28;20049;-78
2022/08/15 00:26:00;;;;;;;10.95;8.13;;;;;;;23.30;100.00;100300.00;5049676;28;20033;-79
2022/08/15 00:28:27;;;;;;;12.52;9.57;;;;;;;23.17;100.00;100313.13;5036964;28;20123;-78
2022/08/15 00:30:53;;;;;;;9.80;8.90;;;;;;;23.19;100.00;100305.00;5044415;28;20033;-78
2022/08/15 00:33:19;;;;;;;9.55;8.60;;;;;;;23.24;100.00;100309.22;5036662;28;20108;-79
2022/08/15 00:35:46;;;;;;;9.60;8.68;;;;;;;23.28;100.00;100312.66;5043331;28;20028;-79
2022/08/15 00:38:18;;;;;;;10.52;9.02;;;;;;;23.38;100.00;100299.69;5038329;28;20104;-79
2022/08/15 00:43:53;;;;;;;9.77;8.75;;;;;;;23.42;100.00;100301.28;5047380;28;20047;-79
2022/08/15 00:46:19;;;;;;;14.20;9.15;;;;;;;23.47;100.00;100298.38;5051460;28;20024;-79
2022/08/15 00:48:46;;;;;;;9.60;8.70;;;;;;;23.45;100.00;100298.44;5033377;28;20033;-80
2022/08/15 00:51:37;;;;;;;10.05;8.05;;;;;;;23.45;100.00;100295.75;5036919;28;20480;-77
2022/08/15 00:54:12;;;;;;;8.88;7.97;;;;;;;23.43;100.00;100281.53;5039432;28;20049;-78
2022/08/15 00:56:49;;;;;;;9.88;8.93;;;;;;;23.40;100.00;100289.75;5040648;28;20424;-77
2022/08/15 00:59:17;;;;;;;9.43;8.38;;;;;;;23.46;100.00;100286.78;5037969;28;20041;-78
2022/08/15 01:01:44;;;;;;;14.15;8.93;;;;;;;23.37;100.00;100284.50;5044738;28;20104;-78
2022/08/15 01:04:12;;;;;;;8.52;7.72;;;;;;;23.34;100.00;100284.66;5036433;28;20535;-77
2022/08/15 01:06:37;;;;;;;9.73;8.40;;;;;;;23.29;100.00;100292.03;5042610;28;20099;-78
2022/08/15 01:09:06;;;;;;;9.82;8.82;;;;;;;23.28;100.00;100296.53;5037558;28;20053;-79
2022/08/15 01:11:39;;;;;;;13.73;8.35;;;;;;;23.29;100.00;100292.94;5046910;28;20029;-78
2022/08/15 01:14:07;;;;;;;9.48;8.57;;;;;;;23.29;100.00;100278.63;5034542;28;20091;-80
2022/08/15 01:16:34;;;;;;;9.98;8.23;;;;;;;23.27;100.00;100292.09;5033302;28;20101;-78
2022/08/15 01:19:05;;;;;;;10.98;8.30;;;;;;;23.21;100.00;100282.53;5032798;28;20434;-79
2022/08/15 01:21:38;;;;;;;8.88;7.93;;;;;;;23.27;100.00;100285.88;5041902;28;20127;-80
2022/08/15 01:24:30;;;;;;;8.70;7.80;;;;;;;23.29;100.00;100279.50;5048696;28;20058;-80
2022/08/15 01:26:55;;;;;;;8.63;7.65;;;;;;;23.34;100.00;100288.19;5035354;28;20143;-79
2022/08/15 01:29:21;;;;;;;8.88;8.02;;;;;;;23.35;100.00;100281.88;5040746;28;20116;-78
2022/08/15 01:31:47;;;;;;;12.38;9.15;;;;;;;23.32;100.00;100283.84;5045523;28;20100;-80
2022/08/15 01:34:12;;;;;;;10.57;8.13;;;;;;;23.36;100.00;100288.16;5035011;28;20534;-78
2022/08/15 01:36:38;;;;;;;10.25;8.48;;;;;;;23.40;100.00;100277.19;5033637;28;20108;-79
2022/08/15 01:39:11;;;;;;;9.82;8.82;;;;;;;23.48;100.00;100279.53;5045572;28;20061;-79
2022/08/15 01:42:05;;;;;;;10.38;8.70;;;;;;;23.55;100.00;100278.28;5037396;28;20049;-79
2022/08/15 01:44:35;;;;;;;;;;;;;;;23.60;100.00;100266.47;5044194;28;20108;-78
2022/08/15 01:47:12;;;;;;;12.10;8.93;;;;;;;23.65;100.00;100273.34;5039543;28;19936;-79
2022/08/15 01:49:49;;;;;;;10.23;7.60;;;;;;;23.70;100.00;100273.16;5035774;28;20112;-79
2022/08/15 01:52:16;;;;;;;8.90;8.00;;;;;;;23.68;100.00;100275.03;5036224;28;20056;-78
2022/08/15 01:54:41;;;;;;;10.43;7.93;;;;;;;23.67;100.00;100267.91;5052722;28;20481;-77
2022/08/15 01:57:08;;;;;;;9.40;8.38;;;;;;;23.71;100.00;100267.69;5052020;28;20074;-78
2022/08/15 01:59:34;;;;;;;10.60;8.07;;;;;;;23.74;100.00;100272.06;5043038;28;20385;-78
2022/08/15 02:02:02;;;;;;;10.18;7.47;;;;;;;23.72;100.00;100260.50;5041999;28;20037;-79
2022/08/15 02:04:37;;;;;;;10.80;7.13;;;;;;;23.75;100.00;100265.72;5048725;28;20032;-79
2022/08/15 02:07:08;;;;;;;8.30;7.40;;;;;;;23.70;100.00;100262.41;5044568;28;20546;-79
2022/08/15 02:09:35;;;;;;;9.93;8.00;;;;;;;23.63;100.00;100260.94;5043374;28;20025;-78
2022/08/15 02:12:01;;;;;;;11.85;7.50;;;;;;;23.56;100.00;100261.25;5049712;28;20036;-78
2022/08/15 02:14:27;;;;;;;13.43;7.93;;;;;;;23.54;100.00;100257.75;5046320;28;20108;-79
2022/08/15 02:16:53;;;;;;;9.50;6.88;;;;;;;23.54;100.00;100257.75;5048120;28;20025;-78
2022/08/15 02:19:18;;;;;;;7.10;6.38;;;;;;;23.54;100.00;100262.25;5045785;28;20103;-78
2022/08/15 02:21:46;;;;;;;8.93;6.68;;;;;;;23.52;100.00;100265.00;5036238;28;20496;-79
2022/08/15 02:24:16;;;;;;;8.90;6.82;;;;;;;23.51;100.00;100262.41;5037610;28;20030;-79
2022/08/15 02:26:42;;;;;;;8.93;6.30;;;;;;;23.49;100.00;100259.75;5045079;28;20029;-79
2022/08/15 02:29:07;;;;;;;8.75;6.00;;;;;;;23.49;100.00;100270.50;5046366;28;20047;-80
2022/08/15 02:31:33;;;;;;;7.63;5.88;;;;;;;23.52;100.00;100264.13;5049584;28;20021;-80
2022/08/15 02:34:01;;;;;;;6.00;5.43;;;;;;;23.56;100.00;100271.97;5050038;28;20028;-79
2022/08/15 02:36:29;;;;;;;9.52;5.93;;;;;;;23.53;100.00;100272.09;5045837;28;20472;-79
2022/08/15 02:38:55;;;;;;;10.07;5.80;;;;;;;23.53;100.00;100268.56;5035850;28;20415;-79
2022/08/15 02:41:25;;;;;;;9.63;6.63;;;;;;;23.45;100.00;100263.53;5036671;28;20381;-79
2022/08/15 02:43:51;;;;;;;8.60;5.82;;;;;;;23.40;100.00;100244.09;5052266;28;20063;-79
2022/08/15 02:46:17;;;;;;;12.63;5.82;;;;;;;23.44;100.00;100243.03;5044404;28;20153;-79
2022/08/15 02:48:44;;;;;;;7.18;5.45;;;;;;;23.42;100.00;100242.22;5035225;28;20134;-79
2022/08/15 02:51:14;;;;;;;8.18;5.70;;;;;;;23.46;100.00;100238.44;5035234;28;20033;-79
2022/08/15 02:53:43;;;;;;;6.03;5.43;;;;;;;23.47;100.00;100245.56;5039054;28;20067;-79
2022/08/15 02:56:09;;;;;;;12.98;5.30;;;;;;;23.46;100.00;100248.31;5051307;28;20517;-78
2022/08/15 02:58:35;;;;;;;8.55;5.30;;;;;;;23.45;100.00;100251.94;5042954;28;20052;-79
2022/08/15 03:01:03;;;;;;;11.65;5.15;;;;;;;23.45;100.00;100257.31;5035915;28;20104;-80
2022/08/15 03:03:29;;;;;;;11.55;4.88;;;;;;;23.50;100.00;100258.81;5037227;28;20036;-79
2022/08/15 03:05:56;;;;;;;9.32;4.93;;;;;;;23.50;100.00;100255.28;5034996;28;20501;-79
2022/08/15 03:08:21;;;;;;;8.68;4.82;;;;;;;23.52;100.00;100251.59;5039598;28;20037;-80
2022/08/15 03:10:46;;;;;;;10.23;4.35;;;;;;;23.51;100.00;100244.47;5039888;28;20033;-80
2022/08/15 03:13:14;;;;;;;10.38;4.40;;;;;;;23.50;100.00;100228.44;5043778;28;20033;-79
2022/08/15 03:15:47;;;;;;;6.85;5.03;;;;;;;23.49;100.00;100230.22;5034802;28;20035;-79
2022/08/15 03:18:13;;;;;;;7.45;4.53;;;;;;;23.51;100.00;100230.19;5042598;28;20025;-79
2022/08/15 03:20:40;;;;;;;6.55;4.80;;;;;;;23.49;100.00;100243.66;5047715;28;20021;-77
2022/08/15 03:23:07;;;;;;;9.65;4.25;;;;;;;23.49;100.00;100240.09;5042904;28;20116;-79
2022/08/15 03:25:39;;;;;;;7.95;4.30;;;;;;;23.46;100.00;100251.84;5046177;28;20033;-79
2022/08/15 03:28:04;;;;;;;5.20;4.15;;;;;;;23.51;100.00;100257.91;5034413;28;20052;-78
2022/08/15 03:30:30;;;;;;;8.35;4.10;;;;;;;23.50;100.00;100257.97;5042862;28;20024;-79
2022/08/15 03:32:58;;;;;;;6.35;5.05;;;;;;;23.37;100.00;100247.81;5036277;28;20044;-78
2022/08/15 03:35:38;;;;;;;8.05;4.20;;;;;;;23.32;100.00;100252.50;5038042;28;20021;-78
2022/08/15 03:38:03;;;;;;;13.60;5.03;;;;;;;23.31;100.00;100241.84;5033821;28;20050;-78
2022/08/15 03:40:29;;;;;;;7.82;4.60;;;;;;;23.27;100.00;100240.25;5038245;28;20024;-79
2022/08/15 03:42:58;;;;;;;10.05;5.32;;;;;;;23.24;100.00;100242.13;5045452;28;20033;-79
2022/08/15 03:45:25;;;;;;;7.93;5.30;;;;;;;23.20;100.00;100232.47;5052652;28;20048;-78
2022/08/15 03:47:50;;;;;;;9.68;4.80;;;;;;;23.19;100.00;100240.59;5039142;28;20025;-79
2022/08/15 03:50:16;;;;;;;5.72;4.38;;;;;;;23.15;100.00;100233.63;5043657;28;20033;-80
2022/08/15 03:52:57;;;;;;;8.15;5.15;;;;;;;23.04;100.00;100236.75;5043620;28;20048;-80
2022/08/15 03:55:25;;;;;;;6.53;5.30;;;;;;;22.99;100.00;100228.03;5050550;28;20075;-80
2022/08/15 03:57:51;;;;;;;5.43;4.85;;;;;;;22.99;100.00;100231.59;5044280;28;20041;-78
2022/08/15 04:00:19;;;;;;;5.45;4.38;;;;;;;22.97;100.00;100228.09;5037508;28;20033;-80
2022/08/15 04:02:44;;;;;;;6.68;5.00;;;;;;;22.97;100.00;100229.94;5033032;28;20032;-79
2022/08/15 04:05:10;;;;;;;10.48;6.28;;;;;;;22.95;100.00;100231.78;5034554;28;20046;-79
2022/08/15 04:07:36;;;;;;;8.77;5.45;;;;;;;22.95;100.00;100237.16;5040512;28;20034;-80
2022/08/15 04:10:14;;;;;;;5.97;4.57;;;;;;;22.89;100.00;100249.91;5042445;28;20110;-79
2022/08/15 04:12:41;;;;;;;7.85;4.75;;;;;;;22.85;100.00;100263.53;5033432;28;20033;-79
2022/08/15 04:15:10;;;;;;;8.73;5.25;;;;;;;22.77;100.00;100265.69;5041785;28;20024;-79
2022/08/15 04:17:36;;;;;;;8.52;5.22;;;;;;;22.83;100.00;100250.19;5040712;28;20018;-78
2022/08/15 04:20:01;;;;;;;7.68;5.28;;;;;;;22.85;100.00;100250.97;5034335;28;20032;-79
2022/08/15 04:22:49;;;;;;;6.70;5.00;;;;;;;22.85;100.00;100264.41;5036480;28;20025;-78
2022/08/15 04:25:29;;;;;;;9.85;5.03;;;;;;;22.81;100.00;100262.78;5036590;28;20031;-79
2022/08/15 04:27:59;;;;;;;12.43;5.18;;;;;;;22.78;100.00;100259.38;5033830;28;20036;-79
2022/08/15 04:30:28;;;;;;;5.18;4.68;;;;;;;22.79;100.00;100259.31;5035880;28;20052;-78
2022/08/15 04:33:04;;;;;;;8.50;4.95;;;;;;;22.69;100.00;100263.31;5033904;28;20037;-79
2022/08/15 04:35:30;;;;;;;8.18;4.25;;;;;;;22.67;100.00;100267.91;5044161;28;20110;-79
2022/08/15 04:37:56;;;;;;;9.20;5.15;;;;;;;22.60;100.00;100269.97;5033201;28;20447;-81
2022/08/15 04:40:22;;;;;;;11.68;4.88;;;;;;;22.64;100.00;100273.38;5034861;28;20117;-78
2022/08/15 04:42:50;;;;;;;10.27;4.28;;;;;;;22.66;100.00;100276.88;5052178;28;20102;-80
2022/08/15 04:45:15;;;;;;;7.05;4.47;;;;;;;22.58;100.00;100276.34;5050835;28;20499;-79
2022/08/15 04:47:41;;;;;;;6.10;4.30;;;;;;;22.62;100.00;100277.94;5043000;28;20021;-79
2022/08/15 04:50:07;;;;;;;9.60;4.75;;;;;;;22.61;100.00;100281.56;5037215;28;20036;-79
2022/08/15 04:52:32;;;;;;;7.88;4.10;;;;;;;22.57;100.00;100275.44;5050147;28;20037;-79
2022/08/15 04:54:58;;;;;;;7.07;3.90;;;;;;;22.53;100.00;100279.19;5047165;28;20027;-78
2022/08/15 04:57:23;;;;;;;5.43;3.42;;;;;;;22.39;100.00;100274.41;5047946;28;20499;-79
2022/08/15 04:59:49;;;;;;;11.20;3.95;;;;;;;22.39;100.00;100267.22;5043799;28;20021;-77
2022/08/15 05:02:21;;;;;;;6.30;3.22;;;;;;;22.38;100.00;100261.94;5033066;28;20021;-80
2022/08/15 05:04:47;;;;;;;4.63;3.00;;;;;;;22.39;100.00;100261.88;5033535;28;20029;-80
2022/08/15 05:07:12;;;;;;;6.15;3.38;;;;;;;22.41;100.00;100259.16;5041948;28;20036;-79
2022/08/15 05:09:37;;;;;;;5.97;2.70;;;;;;;22.41;100.00;100259.16;5037284;28;20075;-80
2022/08/15 05:12:03;;;;;;;4.15;2.72;;;;;;;22.44;100.00;100256.34;5050321;28;20025;-78
2022/08/15 05:14:29;;;;;;;6.80;2.70;;;;;;;22.36;100.00;100250.44;5042604;28;20025;-78
2022/08/15 05:16:54;;;;;;;3.85;2.85;;;;;;;22.38;100.00;100254.78;5042870;28;20038;-79
2022/08/15 05:19:19;;;;;;;4.68;2.70;;;;;;;22.39;100.00;100256.50;5035500;28;20163;-80
2022/08/15 05:21:45;;;;;;;3.67;2.33;;;;;;;22.44;100.00;100263.53;5044346;28;20021;-79
2022/08/15 05:24:10;;;;;;;7.22;2.75;;;;;;;22.46;100.00;100264.31;5036942;28;20047;-79
2022/08/15 05:26:35;;;;;;;4.22;2.33;;;;;;;22.44;100.00;100264.38;5039013;28;20044;-79
2022/08/15 05:29:01;;;;;;;3.90;2.80;;;;;;;22.46;100.00;100267.84;5039692;28;20034;-78
2022/08/15 05:31:26;;;;;;;3.83;2.67;;;;;;;22.47;100.00;100264.25;5044195;28;20100;-80
2022/08/15 05:33:52;;;;;;;4.65;2.45;;;;;;;22.50;100.00;100268.59;5055788;28;20472;-79
2022/08/15 05:36:19;;;;;;;5.30;2.58;;;;;;;22.52;100.00;100267.59;5049070;28;20515;-79
2022/08/15 05:38:55;;;;;;;2.90;2.10;;;;;;;22.54;100.00;100275.56;5036135;28;20030;-79
2022/08/15 05:41:33;;;;;;;5.97;2.40;;;;;;;22.54;100.00;100278.25;5043019;28;20033;-80
2022/08/15 05:44:13;;;;;;;7.80;2.55;;;;;;;22.60;100.00;100283.38;5039014;28;20040;-80
2022/08/15 05:46:56;;;;;;;4.57;2.47;;;;;;;22.61;100.00;100284.25;5038421;28;20036;-79
2022/08/15 05:49:42;;;;;;;3.90;2.45;;;;;;;22.69;100.00;100288.34;5040550;28;20033;-79
2022/08/15 05:52:39;;;;;;;3.60;2.30;;;;;;;22.55;100.00;100283.56;5046362;28;20063;-79
2022/08/15 05:55:19;;;;;;;7.70;2.92;;;;;;;22.51;100.00;100281.94;5045689;28;20083;-79
2022/08/15 05:58:04;;;;;;;5.47;2.67;;;;;;;22.60;100.00;100280.69;5048333;28;20478;-80
2022/08/15 06:00:31;;;;;;;2.78;2.22;;;;;;;22.65;100.00;100277.81;5046424;28;20021;-79
2022/08/15 06:03:17;;;;;;;5.10;2.50;;;;;;;22.68;100.00;100272.31;5036828;28;20469;-76
2022/08/15 06:05:50;;;;;;;9.23;2.38;;;;;;;22.72;100.00;100272.13;5040492;28;20045;-79
2022/08/15 06:08:28;;;;;;;4.95;2.30;;;;;;;22.68;100.00;100273.19;5048079;28;20052;-78
2022/08/15 06:10:56;;;;;;;4.10;2.47;;;;;;;22.64;100.00;100271.59;5043634;28;20158;-78
2022/08/15 06:13:31;;;;;;;7.72;2.58;;;;;;;22.64;98.87;100265.31;5049120;28;20397;-80
2022/08/15 06:16:26;;;;;;;3.63;2.55;;;;;;;22.74;99.65;100258.63;5048213;28;20558;-79
2022/08/15 06:18:53;;;;;;;5.97;2.20;;;;;;;22.69;97.61;100255.28;5044518;28;20413;-79
2022/08/15 06:21:36;;;;;;;5.60;2.65;;;;;;;22.75;97.37;100252.34;5040933;28;20119;-80
2022/08/15 06:24:04;;;;;;;4.75;2.30;;;;;;;22.76;98.85;100256.75;5036392;28;20485;-80
2022/08/15 06:26:46;;;;;;;8.52;2.78;;;;;;;22.83;98.21;100260.94;5051516;28;20465;-80
2022/08/15 06:29:30;;;;;;;9.57;2.70;;;;;;;22.79;97.44;100258.44;5040210;28;20040;-78
2022/08/15 06:32:03;;;;;;;6.88;2.65;;;;;;;22.77;98.73;100255.81;5038845;28;20021;-77
2022/08/15 06:35:13;;;;;;;6.30;2.67;;;;;;;22.78;99.40;100268.28;5039802;28;20044;-79
2022/08/15 06:38:19;;;;;;;5.75;2.60;;;;;;;22.83;98.38;100254.66;5042083;28;20074;-79
2022/08/15 06:41:21;;;;;;;8.65;2.92;;;;;;;22.80;98.34;100263.72;5035318;28;20112;-74
2022/08/15 06:43:48;;;;;;;8.60;2.60;;;;;;;22.79;99.72;100275.41;5036460;28;20091;-79
2022/08/15 06:46:13;;;;;;;7.38;3.30;;;;;;;22.73;100.00;100275.66;5039419;28;20025;-76
2022/08/15 06:48:41;;;;;;;6.57;2.92;;;;;;;22.82;100.00;100275.28;5052604;28;20021;-72
2022/08/15 06:51:09;;;;;;;3.88;2.67;;;;;;;22.83;100.00;100281.50;5050015;28;20037;-73
2022/08/15 06:53:48;;;;;;;8.38;3.08;;;;;;;22.82;100.00;100277.09;5047912;28;20488;-77
2022/08/15 06:56:26;;;;;;;7.93;3.00;;;;;;;22.77;100.00;100269.22;5047744;28;20040;-78
2022/08/15 06:59:13;;;;;;;5.70;2.90;;;;;;;22.90;100.00;100277.63;5038438;28;20059;-78
2022/08/15 07:01:48;;;;;;;5.63;2.75;;;;;;;22.88;100.00;100279.50;5043758;28;20029;-76
2022/08/15 07:04:38;;;;;;;6.35;3.33;;;;;;;22.97;100.00;100289.81;5044739;28;20025;-77
2022/08/15 07:07:21;;;;;;;8.07;3.45;;;;;;;22.80;100.00;100289.69;5044187;28;20040;-77
2022/08/15 07:09:49;;;;;;;;;;;;;;;22.80;100.00;100277.13;5042372;28;20033;-76
2022/08/15 07:12:35;;;;;;;4.22;3.08;;;;;;;22.85;100.00;100283.19;5041122;28;20367;-76
2022/08/15 07:15:12;;;;;;;5.40;2.92;;;;;;;22.82;100.00;100296.72;5050153;28;20472;-77
2022/08/15 07:17:47;;;;;;;5.70;3.08;;;;;;;22.69;100.00;100290.16;5045355;28;20559;-77
2022/08/15 07:20:13;;;;;;;8.43;3.88;;;;;;;22.54;100.00;100300.56;5040311;28;20112;-77
2022/08/15 07:22:40;;;;;;;6.22;3.35;;;;;;;22.53;100.00;100287.22;5044128;28;20115;-77
2022/08/15 07:25:12;;;;;;;5.28;3.33;;;;;;;22.58;100.00;100292.41;5046321;28;20036;-77
2022/08/15 07:27:38;;;;;;;10.23;3.65;;;;;;;22.46;100.00;100293.81;5046372;28;20017;-77
2022/08/15 07:30:06;;;;;;;11.40;3.80;;;;;;;22.51;100.00;100291.81;5044559;28;20033;-78
2022/08/15 07:32:53;;;;;;;8.88;3.38;;;;;;;22.52;100.00;100288.19;5048966;28;20065;-77
2022/08/15 07:35:26;;;;;;;6.38;4.00;;;;;;;22.58;100.00;100292.41;5040246;28;20022;-77
2022/08/15 07:38:05;;;;;;;6.85;3.40;;;;;;;22.66;100.00;100282.25;5043503;28;20108;-76
2022/08/15 07:40:39;;;;;;;6.95;4.28;;;;;;;22.72;100.00;100284.63;5049213;28;20049;-75
2022/08/15 07:43:25;;;;;;;8.52;4.00;;;;;;;22.72;100.00;100279.28;5052892;28;20079;-77
2022/08/15 07:46:07;;;;;;;6.65;3.78;;;;;;;22.75;100.00;100263.06;5035540;28;20083;-76
2022/08/15 07:48:33;;;;;;;6.25;4.10;;;;;;;22.76;100.00;100264.78;5045278;28;20036;-76
2022/08/15 07:51:07;;;;;;;9.43;4.20;;;;;;;22.80;100.00;100266.41;5036390;28;20037;-77
2022/08/15 07:53:32;;;;;;;6.15;3.72;;;;;;;22.81;100.00;100267.28;5043470;28;20033;-76
2022/08/15 07:56:16;;;;;;;5.80;3.70;;;;;;;22.75;100.00;100271.13;5046638;28;20033;-76
2022/08/15 07:58:42;;;;;;;5.07;3.55;;;;;;;22.68;100.00;100273.19;5043475;28;20057;-76
2022/08/15 08:01:27;;;;;;;5.30;4.20;;;;;;;22.69;100.00;100258.84;5042518;28;20059;-77
2022/08/15 08:04:22;;;;;;;6.10;3.78;;;;;;;22.67;100.00;100265.22;5041857;28;20385;-76
2022/08/15 08:06:55;;;;;;;7.30;3.55;;;;;;;22.75;100.00;100273.81;5046368;28;20044;-76
2022/08/15 08:09:35;;;;;;;10.75;3.85;;;;;;;22.79;100.00;100272.72;5042993;28;20025;-77
2022/08/15 08:12:17;;;;;;;4.60;3.35;;;;;;;22.73;100.00;100264.94;5041634;28;20083;-76
2022/08/15 08:15:02;;;;;;;8.45;3.75;;;;;;;22.71;100.00;100265.00;5033698;28;20071;-76
2022/08/15 08:17:32;;;;;;;4.22;3.55;;;;;;;22.60;100.00;100264.59;5047488;28;20079;-74
2022/08/15 08:19:58;;;;;;;5.55;4.32;;;;;;;22.63;100.00;100285.06;5035830;28;20029;-76
2022/08/15 08:22:53;;;;;;;11.40;4.30;;;;;;;22.55;100.00;100283.56;5047571;28;20487;-77
2022/08/15 08:25:36;;;;;;;6.45;4.20;;;;;;;22.59;100.00;100284.31;5052391;28;20501;-77
2022/08/15 08:28:33;;;;;;;8.50;5.07;;;;;;;22.72;100.00;100295.38;5054881;28;20032;-75
2022/08/15 08:31:40;;;;;;;7.53;4.57;;;;;;;22.66;100.00;100290.28;5035304;28;20490;-78
2022/08/15 08:34:20;;;;;;;9.48;4.07;;;;;;;22.61;100.00;100286.91;5035151;28;20091;-78
2022/08/15 08:36:55;;;;;;;8.07;4.57;;;;;;;22.62;100.00;100286.00;5035194;28;20037;-76
2022/08/15 08:39:33;;;;;;;12.57;4.57;;;;;;;22.68;100.00;100285.72;5053546;28;20492;-76
2022/08/15 08:42:18;;;;;;;11.35;4.35;;;;;;;22.73;100.00;100292.66;5052796;28;20084;-77
2022/08/15 08:44:43;;;;;;;6.90;4.60;;;;;;;22.55;100.00;100294.28;5038827;28;20040;-77
2022/08/15 08:47:28;;;;;;;8.27;4.60;;;;;;;22.48;100.00;100298.16;5035212;28;20358;-77
2022/08/15 08:50:25;;;;;;;9.13;5.22;;;;;;;22.40;100.00;100300.28;5037913;28;20071;-76
2022/08/15 08:53:11;;;;;;;9.43;4.95;;;;;;;22.47;100.00;100295.56;5049036;28;20044;-78
2022/08/15 08:55:50;;;;;;;11.60;5.82;;;;;;;22.42;100.00;100310.94;5050873;28;20063;-77
2022/08/15 08:58:36;;;;;;;8.57;5.50;;;;;;;22.47;100.00;100307.13;5042311;28;20575;-78
2022/08/15 09:01:06;;;;;;;11.65;6.93;;;;;;;22.28;100.00;100303.44;5065082;28;20107;-78
2022/08/15 09:03:48;;;;;;;11.43;7.25;;;;;;;22.32;100.00;100308.59;5051245;28;20121;-78
2022/08/15 09:06:22;;;;;;;13.93;7.28;;;;;;;22.40;100.00;100316.38;5059173;28;20048;-79
2022/08/15 09:09:04;;;;;;;16.98;8.23;;;;;;;22.47;100.00;100317.00;5056583;28;20063;-78
2022/08/15 09:11:37;;;;;;;16.15;8.07;;;;;;;22.39;100.00;100317.31;5067869;28;20012;-79
2022/08/15 09:14:22;;;;;;;14.07;7.85;;;;;;;22.36;100.00;100315.63;5053240;28;20029;-79
2022/08/15 09:16:52;;;;;;;15.75;8.30;;;;;;;22.48;100.00;100319.63;5042763;28;20038;-79
2022/08/15 09:19:21;;;;;;;17.98;9.07;;;;;;;22.50;100.00;100320.41;5049403;28;20474;-79
2022/08/15 09:21:47;;;;;;;11.50;9.10;;;;;;;22.64;100.00;100317.16;5038060;28;20043;-79
2022/08/15 09:24:14;;;;;;;14.90;8.85;;;;;;;22.73;100.00;100314.09;5038174;28;20059;-80
2022/08/15 09:26:44;;;;;;;16.70;8.18;;;;;;;23.02;100.00;100316.44;5043519;28;20052;-79
2022/08/15 09:29:29;;;;;;;12.32;7.85;;;;;;;23.18;100.00;100317.56;5066778;28;20128;-80
2022/08/15 09:32:15;;;;;;;15.10;8.85;;;;;;;23.05;100.00;100311.81;5063861;28;20151;-78
2022/08/15 09:34:58;;;;;;;12.07;8.25;;;;;;;23.34;100.00;100317.72;5059585;28;20029;-79
2022/08/15 09:37:51;;;;;;;14.25;9.32;;;;;;;23.40;100.00;100312.09;5054248;28;20491;-80
2022/08/15 09:40:49;;;;;;;15.85;9.15;;;;;;;23.40;100.00;100328.19;5057759;28;20051;-78
2022/08/15 09:43:36;;;;;;;12.90;8.93;;;;;;;23.45;100.00;100327.13;5051897;28;20030;-78
2022/08/15 09:46:51;;;;;;;15.38;10.43;;;;;;;23.34;100.00;100322.25;5038386;28;20436;-77
2022/08/15 09:49:41;;;;;;;14.35;10.07;;;;;;;23.47;100.00;100326.13;5025683;28;20021;-77
2022/08/15 09:52:21;;;;;;;14.57;10.75;;;;;;;23.41;100.00;100321.00;5042745;28;20061;-78
2022/08/15 09:54:58;;;;;;;12.40;9.82;;;;;;;23.39;100.00;100318.41;5062444;28;20104;-78
2022/08/15 09:57:30;;;;;;;14.73;9.18;;;;;;;23.45;100.00;100322.63;5057682;28;20051;-78
2022/08/15 10:00:00;;;;;;;14.40;10.50;;;;;;;23.50;100.00;100331.34;5043154;28;20156;-77
2022/08/15 10:02:31;;;;;;;14.10;8.85;;;;;;;23.60;100.00;100328.22;5053106;28;20028;-79
2022/08/15 10:04:57;;;;;;;13.85;8.80;;;;;;;23.72;100.00;100327.66;5060220;28;20421;-78
2022/08/15 10:07:41;;;;;;;14.15;8.75;;;;;;;23.69;100.00;100335.88;5058510;28;20029;-77
2022/08/15 10:10:41;;;;;;;11.80;7.80;;;;;;;23.87;100.00;100334.13;5053447;28;20036;-78
2022/08/15 10:13:06;;;;;;;12.40;8.70;;;;;;;23.72;100.00;100333.03;5051675;28;20041;-77
2022/08/15 10:15:46;;;;;;;13.00;8.30;;;;;;;23.68;100.00;100334.97;5061911;28;20028;-77
2022/08/15 10:18:27;;;;;;;10.93;8.05;;;;;;;23.70;100.00;100340.31;5052800;28;20095;-76
2022/08/15 10:20:55;;;;;;;13.27;8.35;;;;;;;23.85;100.00;100336.91;5049103;28;20041;-78
2022/08/15 10:23:30;;;;;;;15.52;8.02;;;;;;;23.80;100.00;100335.38;5053968;28;20029;-79
2022/08/15 10:26:14;;;;;;;10.68;7.18;;;;;;;23.89;100.00;100343.91;5056201;28;20028;-78
2022/08/15 10:28:56;;;;;;;13.52;8.73;;;;;;;24.08;100.00;100343.03;5064097;28;20024;-78
2022/08/15 10:31:25;;;;;;;14.13;9.13;;;;;;;23.99;100.00;100338.94;5061940;28;20032;-79
2022/08/15 10:33:53;;;;;;;17.60;10.40;;;;;;;24.06;100.00;100335.06;5070327;28;20071;-76
2022/08/15 10:36:34;;;;;;;18.08;10.68;;;;;;;24.06;100.00;100340.44;5043904;28;20021;-77
2022/08/15 10:39:08;;;;;;;15.73;11.27;;;;;;;24.08;100.00;100343.03;5048608;28;20040;-77
2022/08/15 10:41:48;;;;;;;17.08;11.10;;;;;;;24.29;100.00;100341.09;5057024;28;20025;-77
2022/08/15 10:44:42;;;;;;;17.00;11.55;;;;;;;24.36;100.00;100341.69;5076593;28;20056;-77
2022/08/15 10:47:15;;;;;;;17.15;11.00;;;;;;;24.45;100.00;100335.84;5066236;28;20041;-78
2022/08/15 10:50:14;;;;;;;11.15;9.63;;;;;;;24.55;100.00;100339.84;5071354;28;20028;-77
2022/08/15 10:53:07;;;;;;;14.73;8.98;;;;;;;24.60;100.00;100336.91;5046851;28;20051;-78
2022/08/15 10:55:36;;;;;;;17.45;10.25;;;;;;;24.60;100.00;100333.34;5060289;28;20368;-77
2022/08/15 10:58:13;;;;;;;19.05;10.35;;;;;;;24.58;100.00;100330.75;5068232;28;20066;-78
2022/08/15 11:01:03;;;;;;;13.25;9.85;;;;;;;24.78;100.00;100337.81;5064577;28;20024;-77
2022/08/15 11:03:55;;;;;;;10.93;9.00;;;;;;;24.95;100.00;100334.28;5063504;28;20567;-77
2022/08/15 11:06:23;;;;;;;12.13;10.23;;;;;;;24.92;100.00;100329.91;5068701;28;20049;-77
2022/08/15 11:08:52;;;;;;;15.63;10.63;;;;;;;24.83;100.00;100333.09;5066775;28;20423;-77
2022/08/15 11:11:22;;;;;;;16.27;9.07;;;;;;;24.91;100.00;100330.88;5046460;28;20112;-77
2022/08/15 11:13:56;;;;;;;11.63;8.45;;;;;;;24.90;100.00;100334.50;5054077;28;20033;-76
2022/08/15 11:16:36;;;;;;;15.15;7.72;;;;;;;24.62;100.00;100339.53;5066707;28;20485;-78
2022/08/15 11:19:15;;;;;;;10.68;7.90;;;;;;;24.81;100.00;100343.06;5061870;28;20085;-78
2022/08/15 11:21:46;;;;;;;9.10;7.40;;;;;;;24.90;100.00;100347.94;5046163;28;20099;-77
2022/08/15 11:24:12;;;;;;;14.43;8.23;;;;;;;24.80;100.00;100351.19;5047856;28;20043;-78
2022/08/15 11:26:45;;;;;;;13.57;7.30;;;;;;;24.82;100.00;100352.00;5049951;28;20107;-76
2022/08/15 11:29:24;;;;;;;15.15;6.97;;;;;;;24.78;100.00;100358.50;5053166;28;20025;-77
2022/08/15 11:31:57;;;;;;;10.20;7.25;;;;;;;24.61;100.00;100353.91;5052664;28;20081;-78
2022/08/15 11:34:26;;;;;;;12.57;7.82;;;;;;;24.51;100.00;100357.09;5040049;28;20095;-76
2022/08/15 11:36:55;;;;;;;14.93;8.00;;;;;;;24.50;100.00;100360.72;5051092;28;20112;-79
2022/08/15 11:39:21;;;;;;;11.95;6.85;;;;;;;24.58;100.00;100358.50;5053369;28;20064;-78
2022/08/15 11:41:53;;;;;;;8.70;6.72;;;;;;;24.63;100.00;100352.06;5050876;28;20021;-79
2022/08/15 11:44:22;;;;;;;10.70;7.68;;;;;;;24.68;100.00;100363.47;5047940;28;20037;-78
2022/08/15 11:46:47;;;;;;;16.67;7.70;;;;;;;24.70;100.00;100365.13;5043173;28;20029;-80